Terminal Aerodrome Forecast
Issued by NWS Missoula, MT

Home | Current Version | Previous Version | Text Only | Print | Product List | Glossary On
Versions: 1 2 3 4 5 6 7 8 9 10 11 12 13 14 15 16 17 18 19
000
FTUS45 KMSO 020520
TAFGPI
TAF
KGPI 020520Z 0206/0306 19008KT P6SM OVC080
     FM021000 36008KT P6SM VCSH BKN035 OVC050
     FM021300 02010KT P6SM -SHRA BKN035 OVC050
     FM021800 02007KT P6SM OVC070=

USA.gov is the U.S. government's official web portal to all federal, state and local government web resources and services.